Time;durP1;ratioP1;P1;durP2;ratioP2;P2;SDS_P1;SDS_P2;PMS_P1;PMS_P2;Temp;Humidity;BMP_temperature;BMP_pressure;BME280_temperature;BME280_humidity;BME280_pressure;Samples;Min_cycle;Max_cycle;Signal;HPM_P1;HPM_P2
2021/06/10 00:02:06;;;;;;;15.25;11.45;;;23.00;99.90;;;;;;5031954;28;20042;-70
2021/06/10 00:04:32;;;;;;;14.02;12.07;;;23.00;99.90;;;;;;5032205;28;20028;-72
2021/06/10 00:06:58;;;;;;;12.02;10.77;;;23.00;99.90;;;;;;5030382;28;20085;-70
2021/06/10 00:09:24;;;;;;;12.48;11.18;;;23.00;99.90;;;;;;5031139;28;20026;-70
2021/06/10 00:11:49;;;;;;;12.18;11.07;;;23.00;99.90;;;;;;5017655;28;20067;-71
2021/06/10 00:14:15;;;;;;;12.70;11.52;;;23.00;99.90;;;;;;5014431;28;20048;-71
2021/06/10 00:16:41;;;;;;;12.77;11.55;;;23.00;99.90;;;;;;5031777;28;20034;-71
2021/06/10 00:19:07;;;;;;;12.38;11.25;;;23.00;99.90;;;;;;5032423;28;20036;-71
2021/06/10 00:21:33;;;;;;;12.02;10.85;;;22.90;99.90;;;;;;5031875;28;20017;-71
2021/06/10 00:23:59;;;;;;;12.80;11.70;;;23.00;99.90;;;;;;5029829;28;20372;-72
2021/06/10 00:26:25;;;;;;;11.27;10.48;;;23.00;99.90;;;;;;5029846;28;20115;-71
2021/06/10 00:28:51;;;;;;;11.95;10.02;;;23.00;99.90;;;;;;5030948;28;20571;-71
2021/06/10 00:31:17;;;;;;;12.07;10.93;;;23.10;99.90;;;;;;5031878;28;20064;-71
2021/06/10 00:33:42;;;;;;;12.07;10.23;;;23.10;99.90;;;;;;5031413;28;20088;-70
2021/06/10 00:36:08;;;;;;;11.98;10.93;;;23.10;99.90;;;;;;5027442;28;20040;-70
2021/06/10 00:38:34;;;;;;;12.68;10.57;;;23.30;99.90;;;;;;5031711;28;20472;-70
2021/06/10 00:41:00;;;;;;;11.38;10.23;;;23.50;99.90;;;;;;5014639;28;20336;-73
2021/06/10 00:43:25;;;;;;;11.73;10.57;;;23.50;99.90;;;;;;5027678;28;20065;-71
2021/06/10 00:45:51;;;;;;;11.85;10.82;;;23.60;99.90;;;;;;5031130;28;20106;-71
2021/06/10 00:48:17;;;;;;;10.70;9.80;;;23.70;99.90;;;;;;5032156;28;20014;-70
2021/06/10 00:50:45;;;;;;;11.63;10.57;;;23.60;99.90;;;;;;5032181;28;20071;-71
2021/06/10 00:53:25;;;;;;;10.73;9.50;;;23.60;99.90;;;;;;5032120;28;20108;-70
2021/06/10 00:55:54;;;;;;;11.32;10.32;;;23.60;99.90;;;;;;5028114;28;20041;-71
2021/06/10 00:58:20;;;;;;;11.50;10.52;;;23.60;99.90;;;;;;5022492;28;20034;-71
2021/06/10 01:00:46;;;;;;;13.43;10.45;;;23.50;99.90;;;;;;5014076;28;20030;-71
2021/06/10 01:03:13;;;;;;;11.07;10.18;;;23.50;99.90;;;;;;5029304;28;20467;-71
2021/06/10 01:05:40;;;;;;;10.32;9.25;;;23.50;99.90;;;;;;5014070;28;20399;-72
2021/06/10 01:08:15;;;;;;;15.45;9.57;;;23.50;99.90;;;;;;5031318;28;20021;-72
2021/06/10 01:11:22;;;;;;;11.43;10.43;;;23.50;99.90;;;;;;5029887;28;20025;-71
2021/06/10 01:14:14;;;;;;;11.00;10.10;;;23.50;99.90;;;;;;5027738;28;20017;-71
2021/06/10 01:16:44;;;;;;;11.38;10.20;;;23.50;99.90;;;;;;5029947;28;20491;-70
2021/06/10 01:19:22;;;;;;;11.13;10.15;;;23.50;99.90;;;;;;5029972;28;20037;-71
2021/06/10 01:21:50;;;;;;;10.70;9.60;;;23.50;99.90;;;;;;5026918;28;20099;-70
2021/06/10 01:24:31;;;;;;;11.32;10.23;;;23.50;99.90;;;;;;5029266;28;20048;-71
2021/06/10 01:27:24;;;;;;;12.27;11.18;;;23.50;99.90;;;;;;5029170;28;20033;-71
2021/06/10 01:29:56;;;;;;;13.98;11.15;;;23.50;99.90;;;;;;5009068;28;20495;-71
2021/06/10 01:32:24;;;;;;;10.30;9.50;;;23.50;99.90;;;;;;5029729;28;20122;-71
2021/06/10 01:34:52;;;;;;;10.40;9.45;;;23.50;99.90;;;;;;5028723;28;20095;-72
2021/06/10 01:37:18;;;;;;;10.88;9.82;;;23.40;99.90;;;;;;5029936;28;20025;-72
2021/06/10 01:39:46;;;;;;;11.65;9.85;;;23.30;99.90;;;;;;5029948;28;20132;-71
2021/06/10 01:42:13;;;;;;;8.70;7.97;;;23.30;99.90;;;;;;5026269;28;20565;-71
2021/06/10 01:44:41;;;;;;;12.30;9.35;;;23.20;99.90;;;;;;5029141;28;20029;-71
2021/06/10 01:47:08;;;;;;;9.80;9.00;;;23.10;99.90;;;;;;5028158;28;20030;-71
2021/06/10 01:49:35;;;;;;;9.52;8.15;;;23.10;99.90;;;;;;5011940;28;20471;-72
2021/06/10 01:52:04;;;;;;;11.88;9.45;;;23.00;99.90;;;;;;5030622;28;20036;-70
2021/06/10 01:54:31;;;;;;;10.55;9.75;;;23.00;99.90;;;;;;5028285;28;20021;-71
2021/06/10 01:56:57;;;;;;;9.48;8.63;;;23.00;99.90;;;;;;5029262;28;20045;-70
2021/06/10 01:59:24;;;;;;;12.95;9.85;;;22.90;99.90;;;;;;5030007;28;20033;-72
2021/06/10 02:01:51;;;;;;;9.30;8.52;;;22.90;99.90;;;;;;5029612;28;20021;-71
2021/06/10 02:04:20;;;;;;;10.68;9.68;;;22.80;99.90;;;;;;5029256;28;20055;-71
2021/06/10 02:06:47;;;;;;;11.10;10.15;;;22.70;99.90;;;;;;5030134;28;20036;-72
2021/06/10 02:09:14;;;;;;;10.40;8.25;;;22.70;99.90;;;;;;5029417;28;20037;-72
2021/06/10 02:11:41;;;;;;;9.25;8.55;;;22.60;99.90;;;;;;5012669;28;20048;-72
2021/06/10 02:14:08;;;;;;;10.18;9.18;;;22.70;99.90;;;;;;5028123;28;20042;-72
2021/06/10 02:16:39;;;;;;;11.52;8.57;;;22.60;99.90;;;;;;5029887;28;20032;-72
2021/06/10 02:19:05;;;;;;;14.15;11.45;;;22.50;99.90;;;;;;5027572;28;20060;-73
2021/06/10 02:21:31;;;;;;;8.23;7.43;;;22.50;99.90;;;;;;5029664;28;20079;-72
2021/06/10 02:23:57;;;;;;;9.55;8.75;;;22.40;99.90;;;;;;5028409;28;20037;-73
2021/06/10 02:26:23;;;;;;;9.55;7.72;;;22.40;99.90;;;;;;5030487;28;20084;-73
2021/06/10 02:28:49;;;;;;;8.00;7.40;;;22.40;99.90;;;;;;5011456;28;20017;-73
2021/06/10 02:31:15;;;;;;;16.05;7.88;;;22.40;99.90;;;;;;5017642;28;20497;-72
2021/06/10 02:33:42;;;;;;;8.52;7.65;;;22.40;99.90;;;;;;5031520;28;20078;-71
2021/06/10 02:36:10;;;;;;;9.70;7.55;;;22.40;99.90;;;;;;5031282;28;20038;-72
2021/06/10 02:38:39;;;;;;;7.72;7.07;;;22.30;99.90;;;;;;5030932;28;20037;-72
2021/06/10 02:41:06;;;;;;;8.88;7.00;;;22.30;99.90;;;;;;5032114;28;20415;-73
2021/06/10 02:43:33;;;;;;;7.40;6.80;;;22.20;99.90;;;;;;5013149;28;20029;-74
2021/06/10 02:46:00;;;;;;;8.02;7.15;;;22.10;99.90;;;;;;5033270;28;20037;-74
2021/06/10 02:48:30;;;;;;;7.43;5.65;;;22.10;99.90;;;;;;5033647;28;20026;-73
2021/06/10 02:50:57;;;;;;;8.15;6.07;;;22.00;99.90;;;;;;5032682;28;20101;-74
2021/06/10 02:53:24;;;;;;;13.80;7.35;;;22.00;99.90;;;;;;5032363;28;20508;-74
2021/06/10 02:55:50;;;;;;;7.20;6.20;;;22.00;99.90;;;;;;5031571;28;20519;-73
2021/06/10 02:58:22;;;;;;;6.63;6.13;;;22.00;99.90;;;;;;5016151;28;20034;-73
2021/06/10 03:00:48;;;;;;;9.02;5.80;;;21.90;99.90;;;;;;5033052;28;20025;-74
2021/06/10 03:03:15;;;;;;;6.25;5.75;;;21.80;99.90;;;;;;5031938;28;20029;-75
2021/06/10 03:05:42;;;;;;;6.20;5.72;;;21.80;99.90;;;;;;5038097;28;20112;-74
2021/06/10 03:08:14;;;;;;;6.78;5.07;;;21.60;99.90;;;;;;5044089;28;20032;-76
2021/06/10 03:10:41;;;;;;;6.75;5.90;;;21.60;99.90;;;;;;5041586;28;20089;-74
2021/06/10 03:13:07;;;;;;;5.93;5.43;;;21.50;99.90;;;;;;5046227;28;20105;-73
2021/06/10 03:15:35;;;;;;;6.57;5.93;;;21.60;99.90;;;;;;5044437;28;20014;-74
2021/06/10 03:18:01;;;;;;;6.30;5.70;;;21.70;99.90;;;;;;5045891;28;20033;-74
2021/06/10 03:20:27;;;;;;;8.13;5.25;;;21.70;99.90;;;;;;5047041;28;20089;-74
2021/06/10 03:22:53;;;;;;;6.82;5.22;;;21.70;99.90;;;;;;5046797;28;20028;-73
2021/06/10 03:25:22;;;;;;;4.97;4.57;;;21.80;99.90;;;;;;5046210;28;20462;-74
2021/06/10 03:27:48;;;;;;;5.03;4.63;;;21.90;99.90;;;;;;5037253;28;20108;-73
2021/06/10 03:30:16;;;;;;;5.30;4.80;;;21.90;99.90;;;;;;5028787;28;20464;-73
2021/06/10 03:32:42;;;;;;;4.85;4.55;;;22.00;99.90;;;;;;5032412;28;20033;-74
2021/06/10 03:35:10;;;;;;;4.72;4.30;;;22.00;99.90;;;;;;5031624;28;20076;-74
2021/06/10 03:37:38;;;;;;;4.75;4.28;;;22.00;99.90;;;;;;5028718;28;20472;-74
2021/06/10 03:40:05;;;;;;;6.70;3.72;;;22.10;99.90;;;;;;5030771;28;20033;-74
2021/06/10 03:42:32;;;;;;;5.13;4.60;;;22.20;99.90;;;;;;5033417;28;20076;-74
2021/06/10 03:44:58;;;;;;;5.47;4.97;;;22.30;99.90;;;;;;5012424;28;20085;-74
2021/06/10 03:47:25;;;;;;;6.32;3.72;;;22.40;99.90;;;;;;5032026;28;20080;-72
2021/06/10 03:49:59;;;;;;;3.90;3.60;;;22.40;99.90;;;;;;5032127;28;20643;-72
2021/06/10 03:52:31;;;;;;;3.42;3.15;;;22.50;99.90;;;;;;5033398;28;20030;-73
2021/06/10 03:54:58;;;;;;;4.22;3.92;;;22.50;99.90;;;;;;5030576;28;20029;-74
2021/06/10 03:57:24;;;;;;;3.47;3.28;;;22.50;99.90;;;;;;5033103;28;20113;-73
2021/06/10 03:59:50;;;;;;;5.53;3.45;;;22.60;99.90;;;;;;5029443;28;20464;-74
2021/06/10 04:02:16;;;;;;;4.00;3.67;;;22.50;99.90;;;;;;5033173;28;20104;-74
2021/06/10 04:04:42;;;;;;;3.47;3.28;;;22.50;99.90;;;;;;5028145;28;20387;-74
2021/06/10 04:07:09;;;;;;;3.88;3.67;;;22.60;99.90;;;;;;5032663;28;20413;-74
2021/06/10 04:09:34;;;;;;;3.22;3.03;;;22.60;99.90;;;;;;5032149;28;20048;-73
2021/06/10 04:12:00;;;;;;;7.22;3.70;;;22.50;99.90;;;;;;5030567;28;20491;-75
2021/06/10 04:14:26;;;;;;;3.95;3.40;;;22.60;99.90;;;;;;5030122;28;20719;-72
2021/06/10 04:16:51;;;;;;;3.53;3.33;;;22.70;99.90;;;;;;5032155;28;20036;-73
2021/06/10 04:19:17;;;;;;;5.00;3.45;;;22.70;99.90;;;;;;5031305;28;20022;-75
2021/06/10 04:21:43;;;;;;;3.58;3.17;;;22.70;99.90;;;;;;5031721;28;20033;-74
2021/06/10 04:24:09;;;;;;;3.00;2.80;;;22.70;99.90;;;;;;5029198;28;20026;-74
2021/06/10 04:26:35;;;;;;;4.32;2.65;;;22.70;99.90;;;;;;5031726;28;20021;-74
2021/06/10 04:29:01;;;;;;;5.75;4.20;;;22.70;99.90;;;;;;5030915;28;20028;-73
2021/06/10 04:31:26;;;;;;;3.50;3.17;;;22.60;99.90;;;;;;5032838;28;20036;-73
2021/06/10 04:33:52;;;;;;;3.30;2.92;;;22.50;99.90;;;;;;5030193;28;20026;-73
2021/06/10 04:36:18;;;;;;;3.78;2.83;;;22.50;99.90;;;;;;5031889;28;20415;-73
2021/06/10 04:38:44;;;;;;;5.07;3.40;;;22.50;99.90;;;;;;5031085;28;20041;-73
2021/06/10 04:41:10;;;;;;;6.10;3.45;;;22.50;99.90;;;;;;5034303;28;20022;-74
2021/06/10 04:43:36;;;;;;;2.95;2.75;;;22.50;99.90;;;;;;5033516;28;20025;-75
2021/06/10 04:46:02;;;;;;;5.60;3.90;;;22.50;99.90;;;;;;5035899;28;20089;-74
2021/06/10 04:48:28;;;;;;;2.92;2.72;;;22.60;99.90;;;;;;5031609;28;20021;-74
2021/06/10 04:50:55;;;;;;;4.15;3.83;;;22.60;99.90;;;;;;5032124;28;20021;-74
2021/06/10 04:53:22;;;;;;;4.63;4.25;;;22.60;99.90;;;;;;5030413;28;20038;-74
2021/06/10 04:55:47;;;;;;;4.75;3.60;;;22.60;99.90;;;;;;5028082;28;20025;-73
2021/06/10 04:58:13;;;;;;;6.82;4.28;;;22.60;99.90;;;;;;5031651;28;20100;-75
2021/06/10 05:00:39;;;;;;;4.45;4.05;;;22.60;99.90;;;;;;5030541;28;20025;-74
2021/06/10 05:03:06;;;;;;;4.05;3.75;;;22.60;99.90;;;;;;5032157;28;20029;-74
2021/06/10 05:05:33;;;;;;;3.85;3.65;;;22.60;99.90;;;;;;5026278;28;20033;-74
2021/06/10 05:07:59;;;;;;;4.57;4.28;;;22.60;99.90;;;;;;5027931;28;20112;-74
2021/06/10 05:10:25;;;;;;;6.47;4.35;;;22.60;99.90;;;;;;5031614;28;20019;-74
2021/06/10 05:12:50;;;;;;;4.18;3.88;;;22.70;99.90;;;;;;5031196;28;20017;-74
2021/06/10 05:15:16;;;;;;;5.25;4.20;;;22.60;99.90;;;;;;5031240;28;20480;-74
2021/06/10 05:17:42;;;;;;;4.60;3.72;;;22.70;99.90;;;;;;5030116;28;20039;-74
2021/06/10 05:20:09;;;;;;;4.97;4.57;;;22.70;99.90;;;;;;5030302;28;20434;-73
2021/06/10 05:22:35;;;;;;;5.00;4.50;;;22.70;99.90;;;;;;5030555;28;20064;-74
2021/06/10 05:25:01;;;;;;;5.00;4.60;;;22.80;99.90;;;;;;5012343;28;20658;-74
2021/06/10 05:27:26;;;;;;;5.47;4.95;;;22.80;99.90;;;;;;5029409;28;20048;-73
2021/06/10 05:29:52;;;;;;;5.03;4.72;;;22.80;99.90;;;;;;5030593;28;20021;-73
2021/06/10 05:32:18;;;;;;;5.25;4.60;;;22.80;99.90;;;;;;5033226;28;20351;-73
2021/06/10 05:34:44;;;;;;;5.43;4.72;;;22.80;99.90;;;;;;5031166;28;20475;-73
2021/06/10 05:37:09;;;;;;;10.48;4.90;;;22.80;99.90;;;;;;5030517;28;20079;-72
2021/06/10 05:39:35;;;;;;;6.68;4.82;;;22.80;99.90;;;;;;5031828;28;20081;-73
2021/06/10 05:42:01;;;;;;;6.43;5.82;;;22.80;99.90;;;;;;5027478;28;20037;-74
2021/06/10 05:44:26;;;;;;;7.63;5.53;;;22.80;99.90;;;;;;5025811;28;20045;-74
2021/06/10 05:46:52;;;;;;;6.43;5.82;;;22.90;99.90;;;;;;5026082;28;20063;-74
2021/06/10 05:49:18;;;;;;;5.55;5.15;;;22.80;99.90;;;;;;5025693;28;20025;-73
2021/06/10 05:51:44;;;;;;;7.80;4.80;;;22.70;99.90;;;;;;5024612;28;20029;-74
2021/06/10 05:54:10;;;;;;;6.78;4.90;;;22.70;99.90;;;;;;5030474;28;20032;-74
2021/06/10 05:56:36;;;;;;;6.40;4.97;;;22.70;99.90;;;;;;5029759;28;20033;-73
2021/06/10 05:59:02;;;;;;;5.75;5.25;;;22.70;99.90;;;;;;5029415;28;20033;-73
2021/06/10 06:01:28;;;;;;;7.40;5.18;;;22.60;99.90;;;;;;5012948;28;20479;-74
2021/06/10 06:03:54;;;;;;;6.65;6.15;;;22.70;99.90;;;;;;5028315;28;20029;-74
2021/06/10 06:06:20;;;;;;;6.32;5.00;;;22.70;99.90;;;;;;5030737;28;20040;-78
2021/06/10 06:08:47;;;;;;;5.05;4.68;;;22.70;99.90;;;;;;5029411;28;20029;-73
2021/06/10 06:11:13;;;;;;;5.38;4.50;;;22.90;99.90;;;;;;5026399;28;20017;-73
2021/06/10 06:16:13;;;;;;;6.65;6.05;;;23.00;99.90;;;;;;5029829;28;20025;-72
2021/06/10 06:18:40;;;;;;;5.88;5.38;;;23.00;99.90;;;;;;5030014;28;20030;-74
2021/06/10 06:21:06;;;;;;;5.25;4.85;;;23.10;99.90;;;;;;5029721;28;20399;-72
2021/06/10 06:23:32;;;;;;;10.15;4.97;;;23.40;99.90;;;;;;5029190;28;20113;-73
2021/06/10 06:25:59;;;;;;;13.50;6.20;;;23.60;99.90;;;;;;5030147;28;20454;-73
2021/06/10 06:28:25;;;;;;;7.50;5.07;;;23.80;99.90;;;;;;5029714;28;20026;-73
2021/06/10 06:30:51;;;;;;;5.47;4.25;;;23.80;99.90;;;;;;5031343;28;20507;-72
2021/06/10 06:33:17;;;;;;;4.18;3.88;;;24.00;99.90;;;;;;5029712;28;20090;-73
2021/06/10 06:35:44;;;;;;;5.10;4.60;;;24.10;99.90;;;;;;5030087;28;20332;-75
2021/06/10 06:38:10;;;;;;;7.50;6.90;;;24.10;99.90;;;;;;5028370;28;20167;-74
2021/06/10 06:40:36;;;;;;;6.10;5.60;;;24.30;99.90;;;;;;5023337;28;20408;-73
2021/06/10 06:43:02;;;;;;;6.07;5.05;;;24.50;99.90;;;;;;5033423;28;20510;-72
2021/06/10 06:45:28;;;;;;;6.38;4.18;;;24.60;99.90;;;;;;5016737;28;20018;-73
2021/06/10 06:47:54;;;;;;;6.18;5.60;;;24.50;99.90;;;;;;5033111;28;20032;-75
2021/06/10 06:50:20;;;;;;;4.82;3.65;;;24.70;99.90;;;;;;5033935;28;20100;-77
2021/06/10 06:52:46;;;;;;;6.03;5.53;;;24.80;99.90;;;;;;5016346;28;20057;-76
2021/06/10 06:55:12;;;;;;;4.45;4.05;;;24.90;99.90;;;;;;5033487;28;20025;-76
2021/06/10 06:57:37;;;;;;;5.10;4.70;;;25.00;99.90;;;;;;5033509;28;20087;-75
2021/06/10 07:00:05;;;;;;;11.38;6.05;;;25.00;99.90;;;;;;5016032;28;20455;-76
2021/06/10 07:02:30;;;;;;;8.02;4.28;;;25.20;99.90;;;;;;5033498;28;20631;-75
2021/06/10 07:04:56;;;;;;;4.55;4.15;;;25.20;99.90;;;;;;5033627;28;20052;-75
2021/06/10 07:07:22;;;;;;;4.63;4.10;;;25.30;99.90;;;;;;5033906;28;20056;-77
2021/06/10 07:09:48;;;;;;;11.82;4.38;;;25.30;99.90;;;;;;5033246;28;20080;-79
2021/06/10 07:12:13;;;;;;;5.68;4.47;;;25.40;99.90;;;;;;5033710;28;20025;-75
2021/06/10 07:14:39;;;;;;;10.15;4.50;;;25.70;99.90;;;;;;5015832;28;20454;-76
2021/06/10 07:17:05;;;;;;;4.63;4.30;;;25.60;99.90;;;;;;5033910;28;20060;-76
2021/06/10 07:19:30;;;;;;;4.18;3.80;;;25.50;99.90;;;;;;5033692;28;20033;-75
2021/06/10 07:21:56;;;;;;;3.83;3.60;;;25.40;99.90;;;;;;5033537;28;20065;-75
2021/06/10 07:24:22;;;;;;;10.73;4.43;;;25.10;99.90;;;;;;5029495;28;20076;-76
2021/06/10 07:26:48;;;;;;;10.95;4.75;;;25.10;99.90;;;;;;5034038;28;20033;-76
2021/06/10 07:29:16;;;;;;;7.43;4.53;;;25.10;99.90;;;;;;5019055;28;20095;-76
2021/06/10 07:31:43;;;;;;;4.28;3.97;;;24.90;99.90;;;;;;5032893;28;20022;-76
2021/06/10 07:34:09;;;;;;;8.52;5.55;;;24.90;99.90;;;;;;5032938;28;20441;-77
2021/06/10 07:36:35;;;;;;;4.50;4.07;;;25.00;99.90;;;;;;5015994;28;20129;-77
2021/06/10 07:39:07;;;;;;;5.72;4.95;;;25.10;99.90;;;;;;5033132;28;20112;-78
2021/06/10 07:41:33;;;;;;;8.13;4.20;;;25.20;99.90;;;;;;5035349;28;20566;-76
2021/06/10 07:43:59;;;;;;;4.55;4.15;;;25.50;99.90;;;;;;5032523;28;20570;-77
2021/06/10 07:46:24;;;;;;;4.35;4.05;;;25.60;99.90;;;;;;5033732;28;20101;-78
2021/06/10 07:48:50;;;;;;;4.20;3.90;;;25.70;99.90;;;;;;5033492;28;20013;-77
2021/06/10 07:51:16;;;;;;;4.82;4.53;;;25.60;99.90;;;;;;5032712;28;20026;-76
2021/06/10 07:53:42;;;;;;;9.68;4.57;;;25.70;99.90;;;;;;5032581;28;20022;-76
2021/06/10 07:56:08;;;;;;;8.32;4.75;;;25.60;99.90;;;;;;5030718;28;20376;-77
2021/06/10 07:58:35;;;;;;;5.20;4.80;;;25.60;99.90;;;;;;5030286;28;20030;-77
2021/06/10 08:01:01;;;;;;;6.43;5.18;;;25.60;99.90;;;;;;5031112;28;20061;-76
2021/06/10 08:03:27;;;;;;;4.75;4.40;;;25.40;99.90;;;;;;5032260;28;20120;-76
2021/06/10 08:05:56;;;;;;;5.95;5.13;;;25.60;99.90;;;;;;5015356;28;20105;-77
2021/06/10 08:08:23;;;;;;;6.95;4.93;;;25.80;99.90;;;;;;5029551;28;20395;-77
2021/06/10 08:10:53;;;;;;;5.93;5.45;;;25.90;99.90;;;;;;5019663;28;20502;-77
2021/06/10 08:13:22;;;;;;;5.38;4.93;;;25.80;99.90;;;;;;5039385;28;20009;-76
2021/06/10 08:15:50;;;;;;;14.30;6.93;;;25.80;99.90;;;;;;5041611;28;20014;-77
2021/06/10 08:18:18;;;;;;;8.30;7.30;;;25.70;99.90;;;;;;5033940;28;20031;-77
2021/06/10 08:20:43;;;;;;;6.95;5.20;;;25.90;99.90;;;;;;5032282;28;20433;-76
2021/06/10 08:23:09;;;;;;;6.40;5.20;;;26.00;99.90;;;;;;5032132;28;20022;-77
2021/06/10 08:25:42;;;;;;;7.00;5.50;;;26.00;99.90;;;;;;5026753;28;20479;-76
2021/06/10 08:28:09;;;;;;;5.53;5.03;;;26.00;99.90;;;;;;5032040;28;20463;-76
2021/06/10 08:30:34;;;;;;;17.77;5.60;;;26.00;99.90;;;;;;5029189;28;20022;-77
2021/06/10 08:33:00;;;;;;;6.78;6.07;;;25.80;99.90;;;;;;5009331;28;20084;-77
2021/06/10 08:35:26;;;;;;;5.47;4.97;;;25.80;99.90;;;;;;5030086;28;20084;-77
2021/06/10 08:37:51;;;;;;;5.90;5.50;;;25.60;99.90;;;;;;5028592;28;20022;-77
2021/06/10 08:40:17;;;;;;;6.38;4.68;;;25.70;99.90;;;;;;5031545;28;20462;-76
2021/06/10 08:42:44;;;;;;;5.85;5.35;;;25.70;99.90;;;;;;5030407;28;20124;-76
2021/06/10 08:45:11;;;;;;;5.22;4.78;;;25.50;99.90;;;;;;5028991;28;20028;-76
2021/06/10 08:47:42;;;;;;;5.53;5.00;;;25.60;99.90;;;;;;5031299;28;20021;-76
2021/06/10 08:50:10;;;;;;;6.13;4.95;;;25.40;99.90;;;;;;5031733;28;20025;-77
2021/06/10 08:52:36;;;;;;;7.38;6.70;;;25.30;99.90;;;;;;5015076;28;20100;-78
2021/06/10 08:55:03;;;;;;;6.45;5.95;;;25.30;99.90;;;;;;5030937;28;20022;-77
2021/06/10 08:57:29;;;;;;;8.95;7.15;;;25.40;99.90;;;;;;5030828;28;20618;-77
2021/06/10 08:59:55;;;;;;;6.22;5.78;;;25.50;99.90;;;;;;5031449;28;20026;-76
2021/06/10 09:02:20;;;;;;;5.78;4.82;;;25.90;99.90;;;;;;5012956;28;20399;-76
2021/06/10 09:04:46;;;;;;;5.72;5.30;;;26.10;99.90;;;;;;5029451;28;20100;-78
2021/06/10 09:07:12;;;;;;;5.35;4.95;;;25.90;99.90;;;;;;5031640;28;20162;-77
2021/06/10 09:09:40;;;;;;;5.47;5.10;;;26.00;99.90;;;;;;5030577;28;20025;-77
2021/06/10 09:12:09;;;;;;;6.95;5.82;;;25.90;99.90;;;;;;5032008;28;20022;-77
2021/06/10 09:14:56;;;;;;;5.05;4.72;;;25.80;99.90;;;;;;5013449;28;20026;-77
2021/06/10 09:17:38;;;;;;;5.65;5.15;;;26.00;99.90;;;;;;5030056;28;20029;-76
2021/06/10 09:20:25;;;;;;;11.15;6.03;;;25.80;99.90;;;;;;5031566;28;20108;-76
2021/06/10 09:23:06;;;;;;;7.63;6.82;;;25.90;99.90;;;;;;5031525;28;20108;-76
2021/06/10 09:25:32;;;;;;;9.35;6.57;;;26.10;99.90;;;;;;5031328;28;20033;-77
2021/06/10 09:28:03;;;;;;;5.60;5.10;;;26.40;99.90;;;;;;5028060;28;20037;-76
2021/06/10 09:30:43;;;;;;;5.63;4.78;;;26.60;99.90;;;;;;5012878;28;20029;-76
2021/06/10 09:33:24;;;;;;;7.97;4.80;;;26.40;99.90;;;;;;5014126;28;20483;-77
2021/06/10 09:35:51;;;;;;;5.80;4.75;;;26.50;99.90;;;;;;5029108;28;20021;-76
2021/06/10 09:38:22;;;;;;;4.80;4.50;;;26.60;99.90;;;;;;5012909;28;20557;-77
2021/06/10 09:41:05;;;;;;;6.55;4.95;;;26.50;99.90;;;;;;5012966;28;20491;-76
2021/06/10 09:43:43;;;;;;;8.25;7.55;;;26.50;99.90;;;;;;5030498;28;20126;-77
2021/06/10 09:46:09;;;;;;;6.40;5.15;;;26.70;99.90;;;;;;5029205;28;20021;-77
2021/06/10 09:48:35;;;;;;;5.15;4.57;;;26.70;99.90;;;;;;5028424;28;20033;-76
2021/06/10 09:51:02;;;;;;;5.32;4.65;;;26.80;99.90;;;;;;5030988;28;20506;-77
2021/06/10 09:53:32;;;;;;;6.18;5.57;;;26.70;99.90;;;;;;5031452;28;20398;-78
2021/06/10 09:56:08;;;;;;;5.45;5.00;;;26.70;99.90;;;;;;5029795;28;20506;-78
2021/06/10 09:58:41;;;;;;;9.18;4.47;;;26.80;99.90;;;;;;5030561;28;20032;-77
2021/06/10 10:01:15;;;;;;;7.35;5.38;;;26.80;99.90;;;;;;5030371;28;20029;-76
2021/06/10 10:03:43;;;;;;;7.43;6.13;;;26.90;99.90;;;;;;5008256;28;20021;-77
2021/06/10 10:08:47;;;;;;;4.70;4.30;;;27.00;99.90;;;;;;5031874;28;20021;-76
2021/06/10 10:11:14;;;;;;;6.80;6.30;;;26.80;99.90;;;;;;5016817;28;20021;-75
2021/06/10 10:13:43;;;;;;;7.65;5.03;;;26.70;99.90;;;;;;5052583;28;20006;-75
2021/06/10 10:16:10;;;;;;;6.03;4.72;;;26.80;99.90;;;;;;5038302;28;20025;-76
2021/06/10 10:18:37;;;;;;;6.70;5.07;;;26.70;99.90;;;;;;5052751;28;20029;-76
2021/06/10 10:21:06;;;;;;;7.85;5.20;;;26.80;99.90;;;;;;5050326;28;20045;-76
2021/06/10 10:23:35;;;;;;;5.00;4.45;;;26.90;99.90;;;;;;5035975;28;20024;-77
2021/06/10 10:26:03;;;;;;;5.95;5.45;;;27.10;99.90;;;;;;5030071;28;20025;-76
2021/06/10 10:28:30;;;;;;;6.93;4.50;;;27.30;99.90;;;;;;5041140;28;20022;-74
2021/06/10 10:30:57;;;;;;;4.55;4.28;;;27.20;99.90;;;;;;5049350;28;20025;-76
2021/06/10 10:33:25;;;;;;;6.53;5.97;;;27.10;99.90;;;;;;5049498;28;20056;-76
2021/06/10 10:35:58;;;;;;;4.90;4.50;;;27.20;99.90;;;;;;5046785;28;20026;-74
2021/06/10 10:38:41;;;;;;;5.30;4.28;;;27.30;99.90;;;;;;5052810;28;20089;-75
2021/06/10 10:41:14;;;;;;;4.20;3.90;;;27.20;99.90;;;;;;5042435;28;20281;-76
2021/06/10 10:43:40;;;;;;;4.55;4.15;;;27.00;99.90;;;;;;5031735;28;20272;-77
2021/06/10 10:46:17;;;;;;;5.85;5.30;;;27.10;99.90;;;;;;5031040;28;20029;-76
2021/06/10 10:48:45;;;;;;;5.57;5.18;;;27.10;99.90;;;;;;5032311;28;20025;-76
2021/06/10 10:51:36;;;;;;;8.68;4.43;;;27.20;99.90;;;;;;5029710;28;20045;-73
2021/06/10 10:54:24;;;;;;;10.20;3.87;;;27.30;99.90;;;;;;5028113;28;20039;-73
2021/06/10 10:56:50;;;;;;;4.53;4.22;;;27.40;99.90;;;;;;5027006;28;20040;-74
2021/06/10 10:59:18;;;;;;;8.60;3.83;;;27.40;99.90;;;;;;5031107;28;20025;-74
2021/06/10 11:02:11;;;;;;;6.13;4.47;;;27.30;99.90;;;;;;5030706;28;20029;-75
2021/06/10 11:05:01;;;;;;;4.55;4.25;;;27.10;99.90;;;;;;5027722;28;20038;-74
2021/06/10 11:07:36;;;;;;;4.93;4.53;;;27.10;99.90;;;;;;5020627;28;20043;-74
2021/06/10 11:10:04;;;;;;;6.90;4.40;;;27.50;99.90;;;;;;5029396;28;20113;-73
2021/06/10 11:12:44;;;;;;;4.32;4.03;;;27.40;99.90;;;;;;5030744;28;20025;-74
2021/06/10 11:15:21;;;;;;;5.03;4.50;;;27.40;99.90;;;;;;5030351;28;20030;-72
2021/06/10 11:17:47;;;;;;;5.53;5.00;;;27.30;99.90;;;;;;5026622;28;20332;-74
2021/06/10 11:20:15;;;;;;;4.25;3.95;;;27.50;99.90;;;;;;5028748;28;20495;-73
2021/06/10 11:22:48;;;;;;;6.30;5.68;;;27.70;99.90;;;;;;5030205;28;20104;-74
2021/06/10 11:25:38;;;;;;;4.72;3.90;;;27.70;99.90;;;;;;5027740;28;20030;-75
2021/06/10 11:28:09;;;;;;;3.92;3.47;;;27.90;99.90;;;;;;5018097;28;20407;-74
2021/06/10 11:30:36;;;;;;;5.22;4.45;;;27.90;99.90;;;;;;5033899;28;20735;-73
2021/06/10 11:33:07;;;;;;;6.20;4.60;;;27.90;99.90;;;;;;5034665;28;20041;-74
2021/06/10 11:35:33;;;;;;;;;;;28.10;99.90;;;;;;5035239;28;20497;-74
2021/06/10 11:38:08;;;;;;;7.30;3.72;;;28.30;99.90;;;;;;5032809;28;19999;-74
2021/06/10 11:40:34;;;;;;;7.25;4.20;;;28.60;99.90;;;;;;5034555;28;20025;-73
2021/06/10 11:43:05;;;;;;;6.43;4.88;;;29.00;99.90;;;;;;5016397;28;20484;-74
2021/06/10 11:45:31;;;;;;;4.70;4.27;;;29.10;99.90;;;;;;5033886;28;20056;-76
2021/06/10 11:47:57;;;;;;;4.97;4.53;;;28.60;99.90;;;;;;5033650;28;20368;-74
2021/06/10 11:50:32;;;;;;;4.63;4.28;;;28.40;99.90;;;;;;5032980;28;20079;-74
2021/06/10 11:53:01;;;;;;;4.70;4.30;;;28.40;99.90;;;;;;5034441;28;20013;-74
2021/06/10 11:55:29;;;;;;;4.93;4.00;;;28.70;99.90;;;;;;5033797;28;20025;-73
2021/06/10 11:57:59;;;;;;;4.10;3.80;;;29.00;99.90;;;;;;5031919;28;20086;-72
2021/06/10 12:00:32;;;;;;;4.45;4.15;;;29.30;99.90;;;;;;5027418;28;20020;-72
2021/06/10 12:02:59;;;;;;;4.47;4.10;;;29.50;99.90;;;;;;5032475;28;20033;-72
2021/06/10 12:05:26;;;;;;;6.97;4.50;;;29.40;99.90;;;;;;5032598;28;20037;-73
2021/06/10 12:08:12;;;;;;;4.32;4.03;;;29.00;99.90;;;;;;5032956;28;20487;-73
2021/06/10 12:10:38;;;;;;;7.35;4.43;;;28.70;99.90;;;;;;5032391;28;20029;-72
2021/06/10 12:13:04;;;;;;;4.90;4.57;;;28.60;99.90;;;;;;5032044;28;20034;-74
2021/06/10 12:15:40;;;;;;;5.13;4.72;;;28.40;99.90;;;;;;5015655;28;20036;-75
2021/06/10 12:18:14;;;;;;;8.88;4.75;;;28.10;99.90;;;;;;5032270;28;20483;-74
2021/06/10 12:20:45;;;;;;;5.80;4.07;;;28.30;99.90;;;;;;5033780;28;20029;-73
2021/06/10 12:23:24;;;;;;;4.77;4.37;;;28.30;99.90;;;;;;5033021;28;20071;-75
2021/06/10 12:26:01;;;;;;;11.32;5.10;;;28.40;99.90;;;;;;5032512;28;20032;-73
2021/06/10 12:28:33;;;;;;;4.32;3.95;;;28.50;99.90;;;;;;5015194;28;20053;-74
2021/06/10 12:31:10;;;;;;;5.13;4.72;;;28.70;99.90;;;;;;5033618;28;20479;-74
2021/06/10 12:33:36;;;;;;;7.15;4.20;;;28.80;99.90;;;;;;5033044;28;20423;-73
2021/06/10 12:36:04;;;;;;;4.32;4.03;;;29.00;99.90;;;;;;5032965;28;20025;-72
2021/06/10 12:38:36;;;;;;;3.72;3.47;;;29.40;99.90;;;;;;5029965;28;20022;-72
2021/06/10 12:41:30;;;;;;;4.75;4.40;;;29.00;99.90;;;;;;5031697;28;20028;-73
2021/06/10 12:44:17;;;;;;;7.60;4.90;;;29.00;99.90;;;;;;5029133;28;20516;-73
2021/06/10 12:46:51;;;;;;;10.20;5.50;;;29.30;99.90;;;;;;5031210;28;20030;-74
2021/06/10 12:49:19;;;;;;;4.43;3.38;;;29.50;99.90;;;;;;5036991;28;20104;-72
2021/06/10 12:51:49;;;;;;;4.97;4.57;;;29.20;99.90;;;;;;5028643;28;20029;-75
2021/06/10 12:54:39;;;;;;;4.80;4.22;;;28.90;99.90;;;;;;5029977;28;20488;-75
2021/06/10 12:57:05;;;;;;;4.28;3.92;;;28.60;99.90;;;;;;5031010;28;20045;-76